Airfield :
LOGIN :

Register | Disclaimer

   EN    FR    IT 

 










Legend :    VFR   Marginal VFR   IFR   Intensive IFR   Very Intensive IFR
Visi :
Ceiling :
>= 8 km
>= 3000ft
5 to 8 km
1000 to 3000 ft
1500m to 5 km
500 to 1000 ft
800 to 1500m
200 to 500 ft
< 800m
< 200 ft
Symbols :   Thunderstorms  Fog  Heavy snow  Heavy precipitations  Wind > 20 kt
SIGMETs :     Misc.  Thunderstorms  Icing  Turbulence  Mountain Waves  Volcanic Ashes







- Airport Elevation : 1247 ft
- IATA code : PRG


LKPR - Praha Ruzyne

CURRENT METAR :
  • 220200Z 29011KT 9999 OVC024 07/05 Q1024 NOSIG

EXPIRED METARs :
  • 220130Z 28010KT 9999 FEW020 OVC030 07/05 Q1024 NOSIG
  • 220100Z 26009KT 9999 -RA SCT021 OVC028 07/05 Q1024 NOSIG
  • 220030Z 27011KT 9999 -RA OVC024 07/04 Q1024 NOSIG
  • 220000Z 24009KT 9999 -RA BKN023 OVC038 06/04 Q1024 NOSIG
  • 212344Z 26012KT 9999 -RA FEW023 BKN036 07/04 Q1024 RMK REG QNH 1020
  • 212330Z 25010KT 9999 BKN024 07/03 Q1024 NOSIG

TAF TAF LKPR
Valid from the 22 at 00:00 until the 23 at 06:00 UTC


212300Z 2200/2306 27014KT 9999 BKN023
TEMPO 2200/2206 29016G26KT
BECMG 2206/2209 01014KT
TEMPO 2209/2216 02016G28KT
TEMPO 2200/2214 4000 RA BKN010
PROB30
TEMPO 2206/2210 BKN005
TEMPO 2214/2218 4000 SHRASN BKN010
BECMG 2218/2220 11006KT
BECMG 2220/2222 CAVOK
No reported NOTAMs for that airfield.



MET'MAP, your aeronautical weather chart ! - Copyright ORBIFLY December 2007 - Disclaimer

ORBIFLY MET'MAP TEAM :

Programming & Development : Alexandra Zaïnal
Concept & Development : Baudouin d'Aumeries
Co-Development & Prog : Marc-Olivier Méhu
Technical & hardware support : Manuel Goepfert

Contact : metmap@orbifly.com




SOURCES & CREDITS :

   NOAA